createdAt,value
2022-08-20T00:00:21.903Z,14.05
2022-08-20T00:02:56.775Z,13.18
2022-08-20T00:05:33.178Z,14.23
2022-08-20T00:08:00.827Z,12.30
2022-08-20T00:10:29.743Z,11.85
2022-08-20T00:12:58.239Z,13.88
2022-08-20T00:15:30.118Z,12.43
2022-08-20T00:17:57.828Z,13.40
2022-08-20T00:20:27.462Z,13.27
2022-08-20T00:22:54.209Z,16.15
2022-08-20T00:25:21.653Z,16.75
2022-08-20T00:27:48.352Z,16.08
2022-08-20T00:30:15.438Z,15.88
2022-08-20T00:32:52.628Z,15.48
2022-08-20T00:35:23.759Z,17.27
2022-08-20T00:37:50.628Z,13.63
2022-08-20T00:40:22.222Z,14.75
2022-08-20T00:42:53.481Z,17.10
2022-08-20T00:45:20.959Z,13.75
2022-08-20T00:47:51.462Z,16.27
2022-08-20T00:50:24.442Z,14.18
2022-08-20T00:52:53.261Z,15.77
2022-08-20T00:55:22.939Z,17.05
2022-08-20T00:58:00.026Z,16.67
2022-08-20T01:00:38.053Z,17.20
2022-08-20T01:03:09.905Z,14.77
2022-08-20T01:05:38.725Z,15.30
2022-08-20T01:08:06.447Z,14.23
2022-08-20T01:10:37.383Z,19.10
2022-08-20T01:13:10.983Z,18.58
2022-08-20T01:15:43.328Z,16.35
2022-08-20T01:18:13.837Z,15.15
2022-08-20T01:20:47.039Z,17.27
2022-08-20T01:23:39.979Z,15.65
2022-08-20T01:26:09.462Z,20.80
2022-08-20T01:28:41.271Z,18.75
2022-08-20T01:31:13.559Z,20.40
2022-08-20T01:33:42.009Z,20.42
2022-08-20T01:36:12.565Z,19.63
2022-08-20T01:38:40.513Z,20.38
2022-08-20T01:41:35.259Z,19.42
2022-08-20T01:44:02.274Z,20.05
2022-08-20T01:46:44.023Z,20.33
2022-08-20T01:49:23.479Z,20.73
2022-08-20T01:51:54.979Z,15.65
2022-08-20T01:54:23.207Z,15.18
2022-08-20T01:57:02.528Z,15.85
2022-08-20T02:01:56.979Z,15.68
2022-08-20T02:04:24.447Z,16.25
2022-08-20T02:06:56.406Z,17.27
2022-08-20T02:09:30.103Z,17.52
2022-08-20T02:11:58.582Z,18.95
2022-08-20T02:14:27.157Z,18.33
2022-08-20T02:16:55.143Z,19.43
2022-08-20T02:19:38.443Z,18.45
2022-08-20T02:22:16.896Z,18.45
2022-08-20T02:24:44.156Z,19.57
2022-08-20T02:27:12.213Z,18.42
2022-08-20T02:29:39.051Z,14.77
2022-08-20T02:32:23.722Z,18.73
2022-08-20T02:34:53.195Z,18.80
2022-08-20T02:37:19.851Z,18.70
2022-08-20T02:39:47.326Z,19.77
2022-08-20T02:42:14.443Z,19.85
2022-08-20T02:44:41.161Z,20.00
2022-08-20T02:47:07.858Z,21.02
2022-08-20T02:49:35.533Z,20.38
2022-08-20T02:52:02.505Z,20.63
2022-08-20T02:54:29.935Z,21.73
2022-08-20T02:56:56.794Z,21.67
2022-08-20T02:59:23.450Z,20.60
2022-08-20T03:01:55.873Z,21.00
2022-08-20T03:04:28.046Z,21.02
2022-08-20T03:06:54.721Z,19.58
2022-08-20T03:09:21.682Z,21.08
2022-08-20T03:11:48.389Z,19.40
2022-08-20T03:14:15.133Z,19.67
2022-08-20T03:16:41.790Z,20.20
2022-08-20T03:19:08.794Z,19.90
2022-08-20T03:21:37.477Z,19.20
2022-08-20T03:24:04.387Z,20.67
2022-08-20T03:26:31.065Z,19.33
2022-08-20T03:28:58.113Z,20.48
2022-08-20T03:31:24.770Z,20.73
2022-08-20T03:33:53.492Z,20.85
2022-08-20T03:36:27.746Z,20.70
2022-08-20T03:39:00.602Z,21.00
2022-08-20T03:41:27.726Z,20.67
2022-08-20T03:43:55.002Z,20.77
2022-08-20T03:46:24.155Z,20.67
2022-08-20T03:49:00.169Z,20.35
2022-08-20T03:51:31.591Z,21.40
2022-08-20T03:54:10.137Z,20.17
2022-08-20T03:56:37.437Z,20.58
2022-08-20T03:59:04.123Z,19.25
2022-08-20T04:01:44.843Z,20.42
2022-08-20T04:04:13.440Z,20.23
2022-08-20T04:06:41.231Z,19.10
2022-08-20T04:09:10.427Z,19.10
2022-08-20T04:11:38.614Z,20.00
2022-08-20T04:14:05.321Z,19.52
2022-08-20T04:16:33.620Z,19.98
2022-08-20T04:19:01.920Z,20.20
2022-08-20T04:21:32.668Z,20.23
2022-08-20T04:24:00.742Z,20.30
2022-08-20T04:26:27.461Z,21.08
2022-08-20T04:28:55.708Z,20.95
2022-08-20T04:31:33.662Z,20.60
2022-08-20T04:34:07.821Z,20.77
2022-08-20T04:36:35.604Z,22.02
2022-08-20T04:39:02.470Z,21.45
2022-08-20T04:41:29.226Z,21.92
2022-08-20T04:43:56.921Z,17.40
2022-08-20T04:46:28.747Z,19.77
2022-08-20T04:48:56.461Z,19.70
2022-08-20T04:51:24.473Z,16.98
2022-08-20T04:53:53.949Z,17.42
2022-08-20T04:58:55.245Z,19.00
2022-08-20T05:01:24.213Z,19.90
2022-08-20T05:03:53.697Z,19.08
2022-08-20T05:06:22.017Z,20.30
2022-08-20T05:08:48.774Z,19.02
2022-08-20T05:11:32.985Z,19.42
2022-08-20T05:14:02.311Z,17.95
2022-08-20T05:16:29.150Z,17.60
2022-08-20T05:18:55.798Z,20.42
2022-08-20T05:21:22.501Z,20.70
2022-08-20T05:23:49.581Z,16.40
2022-08-20T05:26:16.806Z,16.60
2022-08-20T05:28:57.351Z,20.17
2022-08-20T05:31:31.629Z,19.98
2022-08-20T05:34:04.426Z,17.65
2022-08-20T05:36:31.271Z,19.80
2022-08-20T05:38:58.067Z,19.05
2022-08-20T05:41:27.614Z,19.73
2022-08-20T05:43:56.675Z,18.73
2022-08-20T05:46:23.420Z,18.52
2022-08-20T05:48:50.111Z,18.88
2022-08-20T05:51:16.752Z,18.88
2022-08-20T05:53:44.009Z,18.15
2022-08-20T05:56:13.411Z,16.17
2022-08-20T06:01:07.107Z,16.25
2022-08-20T06:03:52.490Z,16.48
2022-08-20T06:06:44.995Z,17.40
2022-08-20T06:09:07.774Z,16.48
2022-08-20T06:11:37.222Z,17.40
2022-08-20T06:14:05.633Z,17.13
2022-08-20T06:16:32.371Z,14.85
2022-08-20T06:18:59.189Z,15.57
2022-08-20T06:21:26.545Z,16.35
2022-08-20T06:23:58.133Z,15.68
2022-08-20T06:26:30.415Z,16.27
2022-08-20T06:28:59.265Z,16.10
2022-08-20T06:31:28.197Z,13.70
2022-08-20T06:33:55.062Z,15.18
2022-08-20T06:36:22.222Z,14.23
2022-08-20T06:38:49.717Z,14.05
2022-08-20T06:41:17.366Z,13.73
2022-08-20T06:43:47.165Z,14.60
2022-08-20T06:46:14.690Z,16.52
2022-08-20T06:48:41.449Z,15.88
2022-08-20T06:51:09.868Z,15.82
2022-08-20T06:53:36.757Z,17.67
2022-08-20T06:56:04.337Z,16.25
2022-08-20T06:58:37.243Z,18.10
2022-08-20T07:01:11.105Z,16.80
2022-08-20T07:03:54.446Z,13.70
2022-08-20T07:06:25.843Z,16.13
2022-08-20T07:08:53.736Z,15.68
2022-08-20T07:11:27.005Z,15.75
2022-08-20T07:13:56.783Z,15.02
2022-08-20T07:16:23.765Z,14.15
2022-08-20T07:18:50.413Z,13.85
2022-08-20T07:21:19.956Z,13.15
2022-08-20T07:23:49.612Z,11.98
2022-08-20T07:26:18.067Z,13.82
2022-08-20T07:28:45.661Z,13.27
2022-08-20T07:31:32.083Z,13.73
2022-08-20T07:34:01.587Z,14.13
2022-08-20T07:36:30.216Z,12.48
2022-08-20T07:38:57.104Z,13.45
2022-08-20T07:41:24.962Z,11.93
2022-08-20T07:43:51.673Z,13.00
2022-08-20T07:46:21.690Z,10.63
2022-08-20T07:48:50.497Z,11.80
2022-08-20T07:51:20.640Z,11.07
2022-08-20T07:53:49.057Z,11.85
2022-08-20T07:56:19.419Z,11.52
2022-08-20T07:58:50.432Z,10.35
2022-08-20T08:01:30.470Z,10.55
2022-08-20T08:04:01.449Z,10.73
2022-08-20T08:06:31.414Z,10.48
2022-08-20T08:09:08.476Z,10.02
2022-08-20T08:11:38.339Z,10.68
2022-08-20T08:14:08.313Z,9.55
2022-08-20T08:16:37.271Z,11.05
2022-08-20T08:19:09.231Z,10.23
2022-08-20T08:21:36.031Z,10.23
2022-08-20T08:24:03.309Z,11.57
2022-08-20T08:26:30.050Z,11.23
2022-08-20T08:28:58.374Z,11.07
2022-08-20T08:31:25.989Z,10.32
2022-08-20T08:33:52.974Z,10.65
2022-08-20T08:36:19.645Z,11.25
2022-08-20T08:38:46.508Z,10.50
2022-08-20T08:41:32.201Z,10.68
2022-08-20T08:44:09.533Z,11.52
2022-08-20T08:46:42.271Z,10.65
2022-08-20T08:49:14.197Z,10.90
2022-08-20T08:51:45.186Z,10.50
2022-08-20T08:54:17.470Z,10.82
2022-08-20T08:56:47.848Z,10.50
2022-08-20T08:59:19.240Z,10.77
2022-08-20T09:01:54.651Z,10.27
2022-08-20T09:04:27.300Z,12.52
2022-08-20T09:06:54.497Z,14.07
2022-08-20T09:09:37.197Z,14.30
2022-08-20T09:12:12.272Z,11.90
2022-08-20T09:14:39.218Z,11.30
2022-08-20T09:17:06.508Z,11.20
2022-08-20T09:19:33.599Z,12.15
2022-08-20T09:22:07.977Z,11.27
2022-08-20T09:24:34.697Z,11.68
2022-08-20T09:27:01.364Z,15.05
2022-08-20T09:29:29.494Z,13.52
2022-08-20T09:32:24.109Z,12.63
2022-08-20T09:34:56.123Z,13.57
2022-08-20T09:37:25.162Z,14.60
2022-08-20T09:39:51.987Z,13.18
2022-08-20T09:42:38.793Z,15.13
2022-08-20T09:47:56.421Z,15.65
2022-08-20T09:50:25.774Z,14.02
2022-08-20T09:52:54.163Z,14.07
2022-08-20T09:55:20.762Z,17.83
2022-08-20T09:57:50.304Z,17.42
2022-08-20T10:00:18.140Z,18.50
2022-08-20T10:02:44.898Z,14.23
2022-08-20T10:05:12.517Z,13.57
2022-08-20T10:07:40.968Z,13.60
2022-08-20T10:10:09.684Z,12.05
2022-08-20T10:12:36.414Z,12.23
2022-08-20T10:15:05.230Z,12.73
2022-08-20T10:17:32.226Z,12.40
2022-08-20T10:19:58.919Z,11.60
2022-08-20T10:22:27.394Z,11.63
2022-08-20T10:24:54.267Z,11.88
2022-08-20T10:27:20.963Z,11.98
2022-08-20T10:29:47.786Z,12.40
2022-08-20T10:32:17.268Z,12.05
2022-08-20T10:34:46.398Z,11.07
2022-08-20T10:39:45.465Z,11.45
2022-08-20T10:42:12.925Z,10.90
2022-08-20T10:44:40.217Z,11.02
2022-08-20T10:47:14.838Z,11.88
2022-08-20T10:49:41.766Z,11.32
2022-08-20T10:52:08.445Z,10.48
2022-08-20T10:54:35.363Z,10.32
2022-08-20T10:57:05.240Z,10.63
2022-08-20T10:59:31.878Z,9.50
2022-08-20T11:01:59.542Z,8.73
2022-08-20T11:04:27.168Z,9.10
2022-08-20T11:06:53.833Z,9.50
2022-08-20T11:09:20.532Z,9.70
2022-08-20T11:11:47.366Z,8.60
2022-08-20T11:14:14.023Z,9.55
2022-08-20T11:16:40.680Z,9.88
2022-08-20T11:19:07.415Z,8.65
2022-08-20T11:21:34.131Z,8.63
2022-08-20T11:24:02.980Z,7.75
2022-08-20T11:28:56.418Z,8.82
2022-08-20T11:31:23.074Z,8.50
2022-08-20T11:33:49.734Z,9.20
2022-08-20T11:36:16.394Z,9.23
2022-08-20T11:38:43.170Z,10.25
2022-08-20T11:41:13.064Z,10.27
2022-08-20T11:43:40.941Z,16.88
2022-08-20T11:46:08.290Z,12.38
2022-08-20T11:48:34.966Z,10.40
2022-08-20T11:51:01.634Z,11.73
2022-08-20T11:53:28.360Z,11.38
2022-08-20T11:55:55.388Z,9.90
2022-08-20T11:58:22.638Z,11.10
2022-08-20T12:00:49.572Z,12.27
2022-08-20T12:03:16.297Z,12.13
2022-08-20T12:05:45.103Z,12.52
2022-08-20T12:08:27.216Z,12.40
2022-08-20T12:10:56.801Z,11.13
2022-08-20T12:13:23.663Z,13.82
2022-08-20T12:15:59.120Z,12.45
2022-08-20T12:18:27.046Z,10.30
2022-08-20T12:20:54.032Z,11.27
2022-08-20T12:23:20.871Z,10.15
2022-08-20T12:25:47.889Z,9.93
2022-08-20T12:28:14.716Z,10.45
2022-08-20T12:30:41.380Z,10.85
2022-08-20T12:33:08.265Z,12.52
2022-08-20T12:35:35.547Z,11.77
2022-08-20T12:38:06.379Z,11.80
2022-08-20T12:40:35.304Z,11.68
2022-08-20T12:43:03.496Z,10.80
2022-08-20T12:45:30.857Z,12.00
2022-08-20T12:48:04.585Z,11.02
2022-08-20T12:50:32.179Z,12.73
2022-08-20T12:52:59.316Z,14.18
2022-08-20T12:55:26.260Z,11.80
2022-08-20T12:57:57.551Z,12.13
2022-08-20T13:00:31.849Z,12.48
2022-08-20T13:03:01.988Z,11.52
2022-08-20T13:05:29.782Z,11.63
2022-08-20T13:07:57.416Z,12.82
2022-08-20T13:10:31.227Z,11.43
2022-08-20T13:12:59.654Z,12.88
2022-08-20T13:15:26.337Z,14.63
2022-08-20T13:17:59.188Z,13.98
2022-08-20T13:20:30.983Z,13.57
2022-08-20T13:23:02.914Z,17.13
2022-08-20T13:25:29.664Z,17.05
2022-08-20T13:28:02.403Z,16.75
2022-08-20T13:30:29.264Z,16.85
2022-08-20T13:32:56.281Z,17.63
2022-08-20T13:35:23.522Z,17.17
2022-08-20T13:37:50.619Z,15.07
2022-08-20T13:40:18.927Z,15.93
2022-08-20T13:42:45.816Z,13.57
2022-08-20T13:45:12.530Z,14.65
2022-08-20T13:47:40.875Z,14.63
2022-08-20T13:50:11.896Z,13.18
2022-08-20T13:52:39.595Z,12.93
2022-08-20T13:55:12.413Z,11.93
2022-08-20T13:57:40.265Z,10.95
2022-08-20T14:00:12.139Z,10.48
2022-08-20T14:02:40.290Z,10.55
2022-08-20T14:05:07.365Z,10.25
2022-08-20T14:07:34.135Z,9.82
2022-08-20T14:10:07.456Z,9.20
2022-08-20T14:12:34.707Z,10.20
2022-08-20T14:15:01.513Z,8.98
2022-08-20T14:17:34.013Z,10.13
2022-08-20T14:20:04.722Z,9.43
2022-08-20T14:22:31.588Z,11.05
2022-08-20T14:25:03.680Z,10.02
2022-08-20T14:27:32.712Z,10.75
2022-08-20T14:30:01.321Z,10.98
2022-08-20T14:32:28.822Z,10.07
2022-08-20T14:35:02.342Z,9.75
2022-08-20T14:37:33.541Z,11.10
2022-08-20T14:40:02.470Z,11.38
2022-08-20T14:42:30.611Z,9.95
2022-08-20T14:44:59.112Z,10.75
2022-08-20T14:47:34.749Z,11.00
2022-08-20T14:50:09.956Z,12.70
2022-08-20T14:52:37.151Z,11.25
2022-08-20T14:55:07.050Z,12.80
2022-08-20T14:57:34.234Z,11.55
2022-08-20T15:00:01.314Z,11.43
2022-08-20T15:02:28.064Z,12.38
2022-08-20T15:04:55.582Z,12.23
2022-08-20T15:07:29.707Z,11.63
2022-08-20T15:09:58.717Z,12.30
2022-08-20T15:12:25.803Z,11.52
2022-08-20T15:14:53.034Z,11.32
2022-08-20T15:17:28.083Z,11.37
2022-08-20T15:19:56.261Z,12.10
2022-08-20T15:22:24.843Z,12.57
2022-08-20T15:24:55.623Z,11.20
2022-08-20T15:27:25.865Z,10.25
2022-08-20T15:29:53.661Z,10.50
2022-08-20T15:32:21.628Z,12.68
2022-08-20T15:34:49.397Z,9.43
2022-08-20T15:37:24.082Z,9.35
2022-08-20T15:39:51.635Z,9.18
2022-08-20T15:42:20.338Z,9.20
2022-08-20T15:44:47.305Z,8.68
2022-08-20T15:47:14.093Z,9.02
2022-08-20T15:49:40.961Z,9.27
2022-08-20T15:52:07.902Z,10.30
2022-08-20T15:54:35.269Z,11.02
2022-08-20T15:57:24.157Z,10.40
2022-08-20T16:00:23.477Z,9.77
2022-08-20T16:05:53.650Z,10.38
2022-08-20T16:08:32.163Z,9.18
2022-08-20T16:11:32.772Z,11.45
2022-08-20T16:14:09.962Z,9.80
2022-08-20T16:16:45.101Z,9.68
2022-08-20T16:19:24.499Z,10.50
2022-08-20T16:21:53.252Z,9.10
2022-08-20T16:24:21.688Z,9.98
2022-08-20T16:27:17.328Z,10.00
2022-08-20T16:30:03.241Z,9.98
2022-08-20T16:32:41.014Z,10.10
2022-08-20T16:35:24.090Z,16.33
2022-08-20T16:38:10.883Z,22.05
2022-08-20T16:40:56.869Z,17.42
2022-08-20T16:43:32.025Z,11.02
2022-08-20T16:46:34.024Z,11.20
2022-08-20T16:49:11.350Z,9.73
2022-08-20T16:51:41.461Z,10.10
2022-08-20T16:54:09.152Z,10.50
2022-08-20T16:56:44.866Z,10.77
2022-08-20T16:59:27.086Z,11.38
2022-08-20T17:02:07.014Z,10.73
2022-08-20T17:04:36.837Z,11.35
2022-08-20T17:09:37.619Z,10.23
2022-08-20T17:12:23.415Z,11.25
2022-08-20T17:14:55.838Z,11.05
2022-08-20T17:17:32.645Z,10.30
2022-08-20T17:20:04.100Z,11.43
2022-08-20T17:22:40.844Z,12.75
2022-08-20T17:25:21.733Z,12.07
2022-08-20T17:27:50.359Z,12.63
2022-08-20T17:30:25.112Z,14.73
2022-08-20T17:32:57.909Z,14.07
2022-08-20T17:35:32.325Z,14.63
2022-08-20T17:38:00.727Z,14.70
2022-08-20T17:40:48.401Z,14.57
2022-08-20T17:43:32.294Z,13.32
2022-08-20T17:46:04.865Z,13.27
2022-08-20T17:48:39.198Z,13.50
2022-08-20T17:51:15.897Z,14.07
2022-08-20T17:53:46.896Z,12.77
2022-08-20T17:56:19.715Z,14.27
2022-08-20T17:58:54.444Z,14.05
2022-08-20T18:01:23.697Z,13.55
2022-08-20T18:03:52.033Z,14.15
2022-08-20T18:06:30.881Z,13.60
2022-08-20T18:09:17.082Z,14.05
2022-08-20T18:12:00.243Z,13.75
2022-08-20T18:14:38.833Z,12.73
2022-08-20T18:17:16.388Z,13.30
2022-08-20T18:19:50.270Z,14.10
2022-08-20T18:22:23.108Z,15.35
2022-08-20T18:24:58.871Z,13.68
2022-08-20T18:27:28.332Z,13.38
2022-08-20T18:32:39.805Z,14.35
2022-08-20T18:35:08.259Z,13.85
2022-08-20T18:37:35.644Z,13.02
2022-08-20T18:40:33.377Z,13.02
2022-08-20T18:43:12.610Z,15.05
2022-08-20T18:45:39.409Z,13.93
2022-08-20T18:48:06.665Z,14.95
2022-08-20T18:50:39.271Z,14.85
2022-08-20T18:53:14.989Z,17.90
2022-08-20T18:56:00.248Z,15.73
2022-08-20T18:58:32.011Z,15.98
2022-08-20T19:01:01.963Z,16.25
2022-08-20T19:03:41.591Z,15.65
2022-08-20T19:06:08.431Z,15.07
2022-08-20T19:08:44.846Z,14.88
2022-08-20T19:11:36.080Z,15.70
2022-08-20T19:14:21.216Z,14.10
2022-08-20T19:16:59.937Z,14.23
2022-08-20T19:19:30.820Z,13.13
2022-08-20T19:22:01.039Z,14.43
2022-08-20T19:24:31.241Z,13.57
2022-08-20T19:27:02.004Z,15.35
2022-08-20T19:29:49.805Z,16.17
2022-08-20T19:32:28.259Z,15.38
2022-08-20T19:35:06.057Z,16.65
2022-08-20T19:37:51.213Z,15.75
2022-08-20T19:40:29.586Z,15.57
2022-08-20T19:42:59.590Z,17.90
2022-08-20T19:45:31.540Z,20.10
2022-08-20T19:48:29.256Z,18.65
2022-08-20T19:51:08.485Z,19.85
2022-08-20T19:53:46.870Z,18.48
2022-08-20T19:56:20.123Z,20.50
2022-08-20T19:59:05.931Z,20.80
2022-08-20T20:01:33.746Z,21.60
2022-08-20T20:04:03.968Z,24.45
2022-08-20T20:06:37.086Z,23.02
2022-08-20T20:09:19.777Z,23.90
2022-08-20T20:11:52.519Z,25.50
2022-08-20T20:14:23.046Z,25.98
2022-08-20T20:16:51.632Z,23.75
2022-08-20T20:19:27.516Z,23.80
2022-08-20T20:22:33.257Z,22.85
2022-08-20T20:25:23.712Z,22.17
2022-08-20T20:27:56.679Z,20.60
2022-08-20T20:30:31.688Z,21.85
2022-08-20T20:33:01.505Z,19.08
2022-08-20T20:35:36.106Z,21.10
2022-08-20T20:38:23.712Z,20.65
2022-08-20T20:40:57.343Z,22.65
2022-08-20T20:43:30.421Z,22.77
2022-08-20T20:46:06.518Z,23.10
2022-08-20T20:48:50.439Z,21.95
2022-08-20T20:51:30.999Z,23.55
2022-08-20T20:54:03.502Z,22.67
2022-08-20T20:56:44.160Z,20.98
2022-08-20T20:59:11.268Z,21.80
2022-08-20T21:01:48.320Z,24.10
2022-08-20T21:04:21.457Z,20.08
2022-08-20T21:06:52.407Z,21.23
2022-08-20T21:09:20.430Z,20.52
2022-08-20T21:11:48.252Z,21.20
2022-08-20T21:14:15.454Z,23.98
2022-08-20T21:16:47.725Z,23.63
2022-08-20T21:19:15.085Z,22.75
2022-08-20T21:21:42.872Z,22.52
2022-08-20T21:24:10.947Z,23.50
2022-08-20T21:26:38.231Z,22.45
2022-08-20T21:29:09.657Z,22.85
2022-08-20T21:31:44.112Z,23.88
2022-08-20T21:34:12.260Z,22.75
2022-08-20T21:36:38.959Z,22.58
2022-08-20T21:39:05.867Z,23.50
2022-08-20T21:41:33.392Z,23.17
2022-08-20T21:44:25.075Z,22.20
2022-08-20T21:46:53.135Z,21.70
2022-08-20T21:49:20.274Z,22.02
2022-08-20T21:51:47.946Z,20.98
2022-08-20T21:54:15.729Z,20.27
2022-08-20T21:56:42.430Z,20.00
2022-08-20T21:59:10.438Z,21.98
2022-08-20T22:01:38.411Z,19.65
2022-08-20T22:04:06.735Z,20.73
2022-08-20T22:06:33.504Z,19.92
2022-08-20T22:09:00.296Z,17.08
2022-08-20T22:11:27.178Z,18.90
2022-08-20T22:13:54.114Z,17.55
2022-08-20T22:16:23.719Z,16.38
2022-08-20T22:18:51.444Z,15.85
2022-08-20T22:21:22.714Z,17.15
2022-08-20T22:23:49.834Z,17.05
2022-08-20T22:26:17.290Z,16.05
2022-08-20T22:28:44.070Z,16.40
2022-08-20T22:31:26.848Z,17.30
2022-08-20T22:33:53.568Z,16.63
2022-08-20T22:36:20.345Z,16.67
2022-08-20T22:38:47.361Z,17.27
2022-08-20T22:41:22.264Z,17.42
2022-08-20T22:43:56.444Z,18.73
2022-08-20T22:46:30.386Z,16.95
2022-08-20T22:48:57.682Z,17.23
2022-08-20T22:51:30.784Z,17.55
2022-08-20T22:53:59.990Z,17.23
2022-08-20T22:56:29.873Z,17.45
2022-08-20T22:58:59.726Z,15.40
2022-08-20T23:01:28.791Z,16.65
2022-08-20T23:03:58.633Z,17.40
2022-08-20T23:06:26.821Z,18.13
2022-08-20T23:08:53.989Z,19.52
2022-08-20T23:13:56.481Z,19.58
2022-08-20T23:16:25.593Z,21.15
2022-08-20T23:18:52.501Z,19.77
2022-08-20T23:21:19.319Z,19.90
2022-08-20T23:23:46.004Z,18.73
2022-08-20T23:26:17.242Z,19.27
2022-08-20T23:28:43.907Z,19.48
2022-08-20T23:31:11.488Z,22.00
2022-08-20T23:33:40.765Z,21.10
2022-08-20T23:36:11.956Z,21.50
2022-08-20T23:38:38.896Z,20.88
2022-08-20T23:41:05.714Z,20.55
2022-08-20T23:43:32.400Z,21.73
2022-08-20T23:46:02.443Z,21.13
2022-08-20T23:48:29.229Z,20.98
2022-08-20T23:50:56.042Z,21.48
2022-08-20T23:53:22.755Z,21.95
2022-08-20T23:55:49.494Z,20.30
2022-08-20T23:58:16.124Z,21.27
